Aviation Digital Data Service (ADDS)

Output produced by METARs form (2030 UTC 16 December 2017)
found at http://www.aviationweather.gov/adds/metars/
 
METAR text: KFKL 161956Z AUTO 25008KT 5SM -SN OVC016 00/M03 A2998 RMK AO2 SLP172 P0000 T00001028 FZRANO
Conditions at: KFKL (FRANKLIN , PA, US) observed 1956 UTC 16 December 2017
Temperature: 0.0°C (32°F)
Dewpoint: -2.8°C (27°F) [RH = 81%]
Pressure (altimeter): 29.98 inches Hg (1015.3 mb)
[Sea-level pressure: 1017.2 mb]
Winds: from the WSW (250 degrees) at 9 MPH (8 knots; 4.2 m/s)
Visibility: 5 miles (8 km)
Ceiling: 1600 feet AGL
Clouds: overcast cloud deck at 1600 feet AGL
Weather: -SN  (light snow)

METAR text: KFKL 161856Z AUTO 23007KT 4SM -SN OVC020 00/M03 A2996 RMK AO2 SLP165 P0000 T00001033 FZRANO
Conditions at: KFKL (FRANKLIN , PA, US) observed 1856 UTC 16 December 2017
Temperature: 0.0°C (32°F)
Dewpoint: -3.3°C (26°F) [RH = 78%]
Pressure (altimeter): 29.96 inches Hg (1014.6 mb)
[Sea-level pressure: 1016.5 mb]
Winds: from the SW (230 degrees) at 8 MPH (7 knots; 3.6 m/s)
Visibility: 4 miles (6 km)
Ceiling: 2000 feet AGL
Clouds: overcast cloud deck at 2000 feet AGL
Weather: -SN  (light snow)

METAR text: KFKL 161827Z AUTO 24011G15KT 5SM -SN BKN023 OVC030 00/M04 A2996 RMK AO2 P0000 FZRANO
Conditions at: KFKL (FRANKLIN , PA, US) observed 1827 UTC 16 December 2017
Temperature: 0.0°C (32°F)
Dewpoint: -4.0°C (25°F) [RH = 74%]
Pressure (altimeter): 29.96 inches Hg (1014.6 mb)
Winds: from the WSW (240 degrees) at 13 MPH (11 knots; 5.7 m/s)
gusting to 17 MPH (15 knots; 7.8 m/s)
Visibility: 5 miles (8 km)
Ceiling: 2300 feet AGL
Clouds: broken clouds at 2300 feet AGL
overcast cloud deck at 3000 feet AGL
Weather: -SN  (light snow)

METAR text: KFKL 161818Z AUTO 24007KT 4SM -SN SCT021 OVC030 00/M03 A2996 RMK AO2 P0000 FZRANO
Conditions at: KFKL (FRANKLIN , PA, US) observed 1818 UTC 16 December 2017
Temperature: 0.0°C (32°F)
Dewpoint: -3.0°C (27°F) [RH = 80%]
Pressure (altimeter): 29.96 inches Hg (1014.6 mb)
Winds: from the WSW (240 degrees) at 8 MPH (7 knots; 3.6 m/s)
Visibility: 4 miles (6 km)
Ceiling: 3000 feet AGL
Clouds: scattered clouds at 2100 feet AGL
overcast cloud deck at 3000 feet AGL
Weather: -SN  (light snow)

METAR text: KFKL 161756Z AUTO 24009KT 4SM -SN BKN026 OVC034 00/M03 A2996 RMK AO2 SLP166 P0000 60000 T00001033 10000 21033 58001 FZRANO
Conditions at: KFKL (FRANKLIN , PA, US) observed 1756 UTC 16 December 2017
Temperature: 0.0°C (32°F)
Dewpoint: -3.3°C (26°F) [RH = 78%]
Pressure (altimeter): 29.96 inches Hg (1014.6 mb)
[Sea-level pressure: 1016.6 mb]
Winds: from the WSW (240 degrees) at 10 MPH (9 knots; 4.7 m/s)
Visibility: 4 miles (6 km)
Ceiling: 2600 feet AGL
Clouds: broken clouds at 2600 feet AGL
overcast cloud deck at 3400 feet AGL
Weather: -SN  (light snow)

METAR text: KFKL 161656Z AUTO 23012G15KT 6SM -SN BKN022 BKN027 OVC038 M01/M04 A2997 RMK AO2 UPB34E42SNE34B42 SLP167 P0000 T10061044 FZRANO
Conditions at: KFKL (FRANKLIN , PA, US) observed 1656 UTC 16 December 2017
Temperature: -0.6°C (31°F)
Dewpoint: -4.4°C (24°F) [RH = 75%]
Pressure (altimeter): 29.97 inches Hg (1015.0 mb)
[Sea-level pressure: 1016.7 mb]
Winds: from the SW (230 degrees) at 14 MPH (12 knots; 6.2 m/s)
gusting to 17 MPH (15 knots; 7.8 m/s)
Visibility: 6 miles (10 km)
Ceiling: 2200 feet AGL
Clouds: broken clouds at 2200 feet AGL
broken clouds at 2700 feet AGL
overcast cloud deck at 3800 feet AGL
Weather: -SN  (light snow)

METAR text: KFKL 161634Z AUTO 23012G18KT 9SM UP SCT019 BKN024 OVC065 M01/M04 A2997 RMK AO2 UPB34SNE34 P0000 FZRANO
Conditions at: KFKL (FRANKLIN , PA, US) observed 1634 UTC 16 December 2017
Temperature: -1.0°C (30°F)
Dewpoint: -4.0°C (25°F) [RH = 80%]
Pressure (altimeter): 29.97 inches Hg (1015.0 mb)
Winds: from the SW (230 degrees) at 14 MPH (12 knots; 6.2 m/s)
gusting to 21 MPH (18 knots; 9.4 m/s)
Visibility: 9 miles (14 km)
Ceiling: 2400 feet AGL
Clouds: scattered clouds at 1900 feet AGL
broken clouds at 2400 feet AGL
overcast cloud deck at 6500 feet AGL
Weather: UP  (unknown precipitation)

METAR text: KFKL 161556Z AUTO 24009KT 9SM -SN FEW015 SCT030 OVC039 M01/M04 A2997 RMK AO2 SLP168 P0000 T10111044 FZRANO
Conditions at: KFKL (FRANKLIN , PA, US) observed 1556 UTC 16 December 2017
Temperature: -1.1°C (30°F)
Dewpoint: -4.4°C (24°F) [RH = 78%]
Pressure (altimeter): 29.97 inches Hg (1015.0 mb)
[Sea-level pressure: 1016.8 mb]
Winds: from the WSW (240 degrees) at 10 MPH (9 knots; 4.7 m/s)
Visibility: 9 miles (14 km)
Ceiling: 3900 feet AGL
Clouds: few clouds at 1500 feet AGL
scattered clouds at 3000 feet AGL
overcast cloud deck at 3900 feet AGL
Weather: -SN  (light snow)

METAR text: KFKL 161552Z AUTO 24010KT 9SM -SN FEW015 SCT029 OVC039 M01/M04 A2997 RMK AO2 P0000 FZRANO
Conditions at: KFKL (FRANKLIN , PA, US) observed 1552 UTC 16 December 2017
Temperature: -1.0°C (30°F)
Dewpoint: -4.0°C (25°F) [RH = 80%]
Pressure (altimeter): 29.97 inches Hg (1015.0 mb)
Winds: from the WSW (240 degrees) at 12 MPH (10 knots; 5.2 m/s)
Visibility: 9 miles (14 km)
Ceiling: 3900 feet AGL
Clouds: few clouds at 1500 feet AGL
scattered clouds at 2900 feet AGL
overcast cloud deck at 3900 feet AGL
Weather: -SN  (light snow)

METAR text: KFKL 161456Z AUTO 24010G15KT 8SM -SN BKN013 BKN018 OVC033 M02/M04 A2997 RMK AO2 SLP168 P0000 60000 T10171044 51013 FZRANO
Conditions at: KFKL (FRANKLIN , PA, US) observed 1456 UTC 16 December 2017
Temperature: -1.7°C (29°F)
Dewpoint: -4.4°C (24°F) [RH = 82%]
Pressure (altimeter): 29.97 inches Hg (1015.0 mb)
[Sea-level pressure: 1016.8 mb]
Winds: from the WSW (240 degrees) at 12 MPH (10 knots; 5.2 m/s)
gusting to 17 MPH (15 knots; 7.8 m/s)
Visibility: 8 miles (13 km)
Ceiling: 1300 feet AGL
Clouds: broken clouds at 1300 feet AGL
broken clouds at 1800 feet AGL
overcast cloud deck at 3300 feet AGL
Weather: -SN  (light snow)

METAR text: KFKL 161410Z AUTO 24008KT 6SM -SN BR BKN011 OVC018 M02/M04 A2996 RMK AO2 P0000 FZRANO
Conditions at: KFKL (FRANKLIN , PA, US) observed 1410 UTC 16 December 2017
Temperature: -2.0°C (28°F)
Dewpoint: -4.0°C (25°F) [RH = 86%]
Pressure (altimeter): 29.96 inches Hg (1014.6 mb)
Winds: from the WSW (240 degrees) at 9 MPH (8 knots; 4.2 m/s)
Visibility: 6 miles (10 km)
Ceiling: 1100 feet AGL
Clouds: broken clouds at 1100 feet AGL
overcast cloud deck at 1800 feet AGL
Weather: -SN BR  (light snow, mist)

METAR text: KFKL 161356Z AUTO 24010G16KT 8SM -SN BKN009 OVC015 M02/M04 A2995 RMK AO2 CIG 008V012 SLP165 P0000 T10221044 FZRANO
Conditions at: KFKL (FRANKLIN , PA, US) observed 1356 UTC 16 December 2017
Temperature: -2.2°C (28°F)
Dewpoint: -4.4°C (24°F) [RH = 85%]
Pressure (altimeter): 29.95 inches Hg (1014.3 mb)
[Sea-level pressure: 1016.5 mb]
Winds: from the WSW (240 degrees) at 12 MPH (10 knots; 5.2 m/s)
gusting to 18 MPH (16 knots; 8.3 m/s)
Visibility: 8 miles (13 km)
Ceiling: 900 feet AGL
Clouds: broken clouds at 900 feet AGL
overcast cloud deck at 1500 feet AGL
Weather: -SN  (light snow)

METAR text: KFKL 161325Z AUTO 23011G18KT 4SM -SN BR BKN009 OVC016 M03/M04 A2995 RMK AO2 CIG 007V012 P0000 FZRANO
Conditions at: KFKL (FRANKLIN , PA, US) observed 1325 UTC 16 December 2017
Temperature: -3.0°C (27°F)
Dewpoint: -4.0°C (25°F) [RH = 93%]
Pressure (altimeter): 29.95 inches Hg (1014.3 mb)
Winds: from the SW (230 degrees) at 13 MPH (11 knots; 5.7 m/s)
gusting to 21 MPH (18 knots; 9.4 m/s)
Visibility: 4 miles (6 km)
Ceiling: 900 feet AGL
Clouds: broken clouds at 900 feet AGL
overcast cloud deck at 1600 feet AGL
Weather: -SN BR  (light snow, mist)

METAR text: KFKL 161316Z AUTO 25012KT 2 1/2SM -SN BR BKN009 OVC016 M03/M04 A2995 RMK AO2 VIS 2V4 CIG 007V013 P0000 FZRANO
Conditions at: KFKL (FRANKLIN , PA, US) observed 1316 UTC 16 December 2017
Temperature: -3.0°C (27°F)
Dewpoint: -4.0°C (25°F) [RH = 93%]
Pressure (altimeter): 29.95 inches Hg (1014.3 mb)
Winds: from the WSW (250 degrees) at 14 MPH (12 knots; 6.2 m/s)
Visibility: 2.50 miles (4.02 km)
Ceiling: 900 feet AGL
Clouds: broken clouds at 900 feet AGL
overcast cloud deck at 1600 feet AGL
Weather: -SN BR  (light snow, mist)

METAR text: KFKL 161307Z AUTO 24011KT 3SM -SN BR BKN009 OVC016 M03/M04 A2995 RMK AO2 P0000 FZRANO
Conditions at: KFKL (FRANKLIN , PA, US) observed 1307 UTC 16 December 2017
Temperature: -3.0°C (27°F)
Dewpoint: -4.0°C (25°F) [RH = 93%]
Pressure (altimeter): 29.95 inches Hg (1014.3 mb)
Winds: from the WSW (240 degrees) at 13 MPH (11 knots; 5.7 m/s)
Visibility: 3 miles (5 km)
Ceiling: 900 feet AGL
Clouds: broken clouds at 900 feet AGL
overcast cloud deck at 1600 feet AGL
Weather: -SN BR  (light snow, mist)

METAR text: KFKL 161256Z AUTO 25011KT 2SM -SN BR BKN009 OVC015 M03/M04 A2995 RMK AO2 VIS 1 1/4V3 CIG 007V013 SLP166 P0000 T10331044 FZRANO
Conditions at: KFKL (FRANKLIN , PA, US) observed 1256 UTC 16 December 2017
Temperature: -3.3°C (26°F)
Dewpoint: -4.4°C (24°F) [RH = 92%]
Pressure (altimeter): 29.95 inches Hg (1014.3 mb)
[Sea-level pressure: 1016.6 mb]
Winds: from the WSW (250 degrees) at 13 MPH (11 knots; 5.7 m/s)
Visibility: 2.00 miles (3.22 km)
Ceiling: 900 feet AGL
Clouds: broken clouds at 900 feet AGL
overcast cloud deck at 1500 feet AGL
Weather: -SN BR  (light snow, mist)

METAR text: KFKL 161236Z AUTO 24010KT 190V260 1 3/4SM -SN BR OVC009 M03/M04 A2995 RMK AO2 CIG 007V012 P0000 FZRANO
Conditions at: KFKL (FRANKLIN , PA, US) observed 1236 UTC 16 December 2017
Temperature: -3.0°C (27°F)
Dewpoint: -4.0°C (25°F) [RH = 93%]
Pressure (altimeter): 29.95 inches Hg (1014.3 mb)
Winds: from the WSW (240 degrees) at 12 MPH (10 knots; 5.2 m/s)
Visibility: 1.75 miles (2.82 km)
Ceiling: 900 feet AGL
Clouds: overcast cloud deck at 900 feet AGL
Weather: -SN BR  (light snow, mist)

METAR text: KFKL 161230Z AUTO 23011KT 3SM -SN BR OVC009 M03/M04 A2995 RMK AO2 CIG 007V013 P0000 FZRANO
Conditions at: KFKL (FRANKLIN , PA, US) observed 1230 UTC 16 December 2017
Temperature: -3.0°C (27°F)
Dewpoint: -4.0°C (25°F) [RH = 93%]
Pressure (altimeter): 29.95 inches Hg (1014.3 mb)
Winds: from the SW (230 degrees) at 13 MPH (11 knots; 5.7 m/s)
Visibility: 3 miles (5 km)
Ceiling: 900 feet AGL
Clouds: overcast cloud deck at 900 feet AGL
Weather: -SN BR  (light snow, mist)

METAR text: KFKL 161214Z AUTO 24010G21KT 2SM -SN BR OVC009 M03/M05 A2994 RMK AO2 CIG 008V013 P0000 FZRANO
Conditions at: KFKL (FRANKLIN , PA, US) observed 1214 UTC 16 December 2017
Temperature: -3.0°C (27°F)
Dewpoint: -5.0°C (23°F) [RH = 86%]
Pressure (altimeter): 29.94 inches Hg (1014.0 mb)
Winds: from the WSW (240 degrees) at 12 MPH (10 knots; 5.2 m/s)
gusting to 24 MPH (21 knots; 10.9 m/s)
Visibility: 2.00 miles (3.22 km)
Ceiling: 900 feet AGL
Clouds: overcast cloud deck at 900 feet AGL
Weather: -SN BR  (light snow, mist)

METAR text: KFKL 161156Z AUTO 23013G19KT 5SM -SN BR OVC009 M03/M05 A2993 RMK AO2 CIG 008V013 SLP156 P0000 60000 T10331050 11033 21056 50004 FZRANO
Conditions at: KFKL (FRANKLIN , PA, US) observed 1156 UTC 16 December 2017
Temperature: -3.3°C (26°F)
Dewpoint: -5.0°C (23°F) [RH = 88%]
Pressure (altimeter): 29.93 inches Hg (1013.6 mb)
[Sea-level pressure: 1015.6 mb]
Winds: from the SW (230 degrees) at 15 MPH (13 knots; 6.8 m/s)
gusting to 22 MPH (19 knots; 9.9 m/s)
Visibility: 5 miles (8 km)
Ceiling: 900 feet AGL
Clouds: overcast cloud deck at 900 feet AGL
Weather: -SN BR  (light snow, mist)

METAR text: KFKL 161154Z AUTO 25013G16KT 5SM -SN BR OVC009 M03/M05 A2993 RMK AO2 CIG 008V013 P0000 FZRANO
Conditions at: KFKL (FRANKLIN , PA, US) observed 1154 UTC 16 December 2017
Temperature: -3.0°C (27°F)
Dewpoint: -5.0°C (23°F) [RH = 86%]
Pressure (altimeter): 29.93 inches Hg (1013.6 mb)
Winds: from the WSW (250 degrees) at 15 MPH (13 knots; 6.8 m/s)
gusting to 18 MPH (16 knots; 8.3 m/s)
Visibility: 5 miles (8 km)
Ceiling: 900 feet AGL
Clouds: overcast cloud deck at 900 feet AGL
Weather: -SN BR  (light snow, mist)

METAR text: KFKL 161140Z AUTO 23010G17KT 2 1/2SM -SN BR OVC009 M04/M05 A2993 RMK AO2 P0000 FZRANO
Conditions at: KFKL (FRANKLIN , PA, US) observed 1140 UTC 16 December 2017
Temperature: -4.0°C (25°F)
Dewpoint: -5.0°C (23°F) [RH = 93%]
Pressure (altimeter): 29.93 inches Hg (1013.6 mb)
Winds: from the SW (230 degrees) at 12 MPH (10 knots; 5.2 m/s)
gusting to 20 MPH (17 knots; 8.8 m/s)
Visibility: 2.50 miles (4.02 km)
Ceiling: 900 feet AGL
Clouds: overcast cloud deck at 900 feet AGL
Weather: -SN BR  (light snow, mist)

METAR text: KFKL 161114Z AUTO 24011G17KT 5SM -SN BR OVC009 M04/M06 A2993 RMK AO2 CIG 008V012 P0000 FZRANO
Conditions at: KFKL (FRANKLIN , PA, US) observed 1114 UTC 16 December 2017
Temperature: -4.0°C (25°F)
Dewpoint: -6.0°C (21°F) [RH = 86%]
Pressure (altimeter): 29.93 inches Hg (1013.6 mb)
Winds: from the WSW (240 degrees) at 13 MPH (11 knots; 5.7 m/s)
gusting to 20 MPH (17 knots; 8.8 m/s)
Visibility: 5 miles (8 km)
Ceiling: 900 feet AGL
Clouds: overcast cloud deck at 900 feet AGL
Weather: -SN BR  (light snow, mist)

METAR text: KFKL 161056Z AUTO 24010KT 3SM -SN BR OVC011 M04/M06 A2992 RMK AO2 CIG 008V012 SLP155 P0000 T10391056 FZRANO
Conditions at: KFKL (FRANKLIN , PA, US) observed 1056 UTC 16 December 2017
Temperature: -3.9°C (25°F)
Dewpoint: -5.6°C (22°F) [RH = 88%]
Pressure (altimeter): 29.92 inches Hg (1013.3 mb)
[Sea-level pressure: 1015.5 mb]
Winds: from the WSW (240 degrees) at 12 MPH (10 knots; 5.2 m/s)
Visibility: 3 miles (5 km)
Ceiling: 1100 feet AGL
Clouds: overcast cloud deck at 1100 feet AGL
Weather: -SN BR  (light snow, mist)

METAR text: KFKL 161034Z AUTO 24009KT 2 1/2SM -SN BR BKN013 OVC019 M04/M06 A2992 RMK AO2 P0000 FZRANO
Conditions at: KFKL (FRANKLIN , PA, US) observed 1034 UTC 16 December 2017
Temperature: -4.0°C (25°F)
Dewpoint: -6.0°C (21°F) [RH = 86%]
Pressure (altimeter): 29.92 inches Hg (1013.3 mb)
Winds: from the WSW (240 degrees) at 10 MPH (9 knots; 4.7 m/s)
Visibility: 2.50 miles (4.02 km)
Ceiling: 1300 feet AGL
Clouds: broken clouds at 1300 feet AGL
overcast cloud deck at 1900 feet AGL
Weather: -SN BR  (light snow, mist)

METAR text: KFKL 160956Z AUTO 23011G15KT 5SM -SN OVC019 M04/M07 A2991 RMK AO2 SLP152 P0000 T10391067 FZRANO
Conditions at: KFKL (FRANKLIN , PA, US) observed 0956 UTC 16 December 2017
Temperature: -3.9°C (25°F)
Dewpoint: -6.7°C (20°F) [RH = 81%]
Pressure (altimeter): 29.91 inches Hg (1013.0 mb)
[Sea-level pressure: 1015.2 mb]
Winds: from the SW (230 degrees) at 13 MPH (11 knots; 5.7 m/s)
gusting to 17 MPH (15 knots; 7.8 m/s)
Visibility: 5 miles (8 km)
Ceiling: 1900 feet AGL
Clouds: overcast cloud deck at 1900 feet AGL
Weather: -SN  (light snow)

METAR text: KFKL 160856Z AUTO 23010KT 7SM -SN BKN025 OVC030 M04/M07 A2992 RMK AO2 SLP154 P0000 60000 T10441072 50003 FZRANO
Conditions at: KFKL (FRANKLIN , PA, US) observed 0856 UTC 16 December 2017
Temperature: -4.4°C (24°F)
Dewpoint: -7.2°C (19°F) [RH = 81%]
Pressure (altimeter): 29.92 inches Hg (1013.3 mb)
[Sea-level pressure: 1015.4 mb]
Winds: from the SW (230 degrees) at 12 MPH (10 knots; 5.2 m/s)
Visibility: 7 miles (11 km)
Ceiling: 2500 feet AGL
Clouds: broken clouds at 2500 feet AGL
overcast cloud deck at 3000 feet AGL
Weather: -SN  (light snow)

METAR text: KFKL 160756Z AUTO 23011G15KT 9SM -SN FEW023 BKN041 OVC095 M05/M08 A2993 RMK AO2 SLP157 P0000 T10501078 FZRANO
Conditions at: KFKL (FRANKLIN , PA, US) observed 0756 UTC 16 December 2017
Temperature: -5.0°C (23°F)
Dewpoint: -7.8°C (18°F) [RH = 81%]
Pressure (altimeter): 29.93 inches Hg (1013.6 mb)
[Sea-level pressure: 1015.7 mb]
Winds: from the SW (230 degrees) at 13 MPH (11 knots; 5.7 m/s)
gusting to 17 MPH (15 knots; 7.8 m/s)
Visibility: 9 miles (14 km)
Ceiling: 4100 feet AGL
Clouds: few clouds at 2300 feet AGL
broken clouds at 4100 feet AGL
overcast cloud deck at 9500 feet AGL
Weather: -SN  (light snow)

METAR text: KFKL 160656Z AUTO 24009KT 9SM -SN OVC024 M06/M08 A2991 RMK AO2 SLP152 P0000 T10561083 FZRANO
Conditions at: KFKL (FRANKLIN , PA, US) observed 0656 UTC 16 December 2017
Temperature: -5.6°C (22°F)
Dewpoint: -8.3°C (17°F) [RH = 81%]
Pressure (altimeter): 29.91 inches Hg (1013.0 mb)
[Sea-level pressure: 1015.2 mb]
Winds: from the WSW (240 degrees) at 10 MPH (9 knots; 4.7 m/s)
Visibility: 9 miles (14 km)
Ceiling: 2400 feet AGL
Clouds: overcast cloud deck at 2400 feet AGL
Weather: -SN  (light snow)

METAR text: KFKL 160556Z AUTO 24012G19KT 9SM -SN BKN024 BKN046 OVC055 M05/M09 A2991 RMK AO2 SLP150 P0000 60000 T10501094 11050 21061 50008 FZRANO
Conditions at: KFKL (FRANKLIN , PA, US) observed 0556 UTC 16 December 2017
Temperature: -5.0°C (23°F)
Dewpoint: -9.4°C (15°F) [RH = 71%]
Pressure (altimeter): 29.91 inches Hg (1013.0 mb)
[Sea-level pressure: 1015.0 mb]
Winds: from the WSW (240 degrees) at 14 MPH (12 knots; 6.2 m/s)
gusting to 22 MPH (19 knots; 9.9 m/s)
Visibility: 9 miles (14 km)
Ceiling: 2400 feet AGL
Clouds: broken clouds at 2400 feet AGL
broken clouds at 4600 feet AGL
overcast cloud deck at 5500 feet AGL
Weather: -SN  (light snow)

METAR text: KFKL 160456Z AUTO 25010G17KT 8SM -SN OVC048 M06/M10 A2991 RMK AO2 SLP154 P0000 T10561100 410501122 FZRANO
Conditions at: KFKL (FRANKLIN , PA, US) observed 0456 UTC 16 December 2017
Temperature: -5.6°C (22°F)
Dewpoint: -10.0°C (14°F) [RH = 71%]
Pressure (altimeter): 29.91 inches Hg (1013.0 mb)
[Sea-level pressure: 1015.4 mb]
Winds: from the WSW (250 degrees) at 12 MPH (10 knots; 5.2 m/s)
gusting to 20 MPH (17 knots; 8.8 m/s)
Visibility: 8 miles (13 km)
Ceiling: 4800 feet AGL
Clouds: overcast cloud deck at 4800 feet AGL
Weather: -SN  (light snow)

METAR text: KFKL 160356Z AUTO 25011G19KT 9SM -SN OVC045 M06/M11 A2990 RMK AO2 SLP149 P0000 T10561111 FZRANO
Conditions at: KFKL (FRANKLIN , PA, US) observed 0356 UTC 16 December 2017
Temperature: -5.6°C (22°F)
Dewpoint: -11.1°C (12°F) [RH = 65%]
Pressure (altimeter): 29.90 inches Hg (1012.6 mb)
[Sea-level pressure: 1014.9 mb]
Winds: from the WSW (250 degrees) at 13 MPH (11 knots; 5.7 m/s)
gusting to 22 MPH (19 knots; 9.9 m/s)
Visibility: 9 miles (14 km)
Ceiling: 4500 feet AGL
Clouds: overcast cloud deck at 4500 feet AGL
Weather: -SN  (light snow)

METAR text: KFKL 160256Z AUTO 24013G23KT 8SM -SN FEW026 OVC047 M06/M10 A2988 RMK AO2 SLP144 P0000 60000 T10561100 53015 FZRANO
Conditions at: KFKL (FRANKLIN , PA, US) observed 0256 UTC 16 December 2017
Temperature: -5.6°C (22°F)
Dewpoint: -10.0°C (14°F) [RH = 71%]
Pressure (altimeter): 29.88 inches Hg (1011.9 mb)
[Sea-level pressure: 1014.4 mb]
Winds: from the WSW (240 degrees) at 15 MPH (13 knots; 6.8 m/s)
gusting to 26 MPH (23 knots; 12.0 m/s)
Visibility: 8 miles (13 km)
Ceiling: 4700 feet AGL
Clouds: few clouds at 2600 feet AGL
overcast cloud deck at 4700 feet AGL
Weather: -SN  (light snow)

METAR text: KFKL 160156Z AUTO 25014G19KT 8SM -SN OVC049 M06/M09 A2986 RMK AO2 SLP139 P0000 T10561094 FZRANO
Conditions at: KFKL (FRANKLIN , PA, US) observed 0156 UTC 16 December 2017
Temperature: -5.6°C (22°F)
Dewpoint: -9.4°C (15°F) [RH = 75%]
Pressure (altimeter): 29.86 inches Hg (1011.3 mb)
[Sea-level pressure: 1013.9 mb]
Winds: from the WSW (250 degrees) at 16 MPH (14 knots; 7.3 m/s)
gusting to 22 MPH (19 knots; 9.9 m/s)
Visibility: 8 miles (13 km)
Ceiling: 4900 feet AGL
Clouds: overcast cloud deck at 4900 feet AGL
Weather: -SN  (light snow)

METAR text: KFKL 160056Z AUTO 24013G19KT 8SM -SN OVC050 M06/M09 A2985 RMK AO2 SNB08 SLP134 P0000 T10561089 FZRANO
Conditions at: KFKL (FRANKLIN , PA, US) observed 0056 UTC 16 December 2017
Temperature: -5.6°C (22°F)
Dewpoint: -8.9°C (16°F) [RH = 77%]
Pressure (altimeter): 29.85 inches Hg (1010.9 mb)
[Sea-level pressure: 1013.4 mb]
Winds: from the WSW (240 degrees) at 15 MPH (13 knots; 6.8 m/s)
gusting to 22 MPH (19 knots; 9.9 m/s)
Visibility: 8 miles (13 km)
Ceiling: 5000 feet AGL
Clouds: overcast cloud deck at 5000 feet AGL
Weather: -SN  (light snow)

METAR text: KFKL 152356Z AUTO 25013KT 9SM OVC055 M06/M08 A2983 RMK AO2 SNE52 SLP131 P0000 60000 T10611078 11050 21061 52010 FZRANO
Conditions at: KFKL (FRANKLIN , PA, US) observed 2356 UTC 15 December 2017
Temperature: -6.1°C (21°F)
Dewpoint: -7.8°C (18°F) [RH = 88%]
Pressure (altimeter): 29.83 inches Hg (1010.2 mb)
[Sea-level pressure: 1013.1 mb]
Winds: from the WSW (250 degrees) at 15 MPH (13 knots; 6.8 m/s)
Visibility: 9 miles (14 km)
Ceiling: 5500 feet AGL
Clouds: overcast cloud deck at 5500 feet AGL
Weather: automated observation with no human augmentation;
there may or may not be significant weather present at this time

METAR text: KFKL 152329Z AUTO 23010G17KT 7SM -SN FEW012 SCT018 OVC060 M06/M08 A2983 RMK AO2 P0000 FZRANO
Conditions at: KFKL (FRANKLIN , PA, US) observed 2329 UTC 15 December 2017
Temperature: -6.0°C (21°F)
Dewpoint: -8.0°C (18°F) [RH = 86%]
Pressure (altimeter): 29.83 inches Hg (1010.2 mb)
Winds: from the SW (230 degrees) at 12 MPH (10 knots; 5.2 m/s)
gusting to 20 MPH (17 knots; 8.8 m/s)
Visibility: 7 miles (11 km)
Ceiling: 6000 feet AGL
Clouds: few clouds at 1200 feet AGL
scattered clouds at 1800 feet AGL
overcast cloud deck at 6000 feet AGL
Weather: -SN  (light snow)

METAR text: KFKL 152256Z AUTO 23009KT 4SM -SN BR BKN019 OVC025 M06/M08 A2982 RMK AO2 SLP127 P0000 T10611083 FZRANO
Conditions at: KFKL (FRANKLIN , PA, US) observed 2256 UTC 15 December 2017
Temperature: -6.1°C (21°F)
Dewpoint: -8.3°C (17°F) [RH = 84%]
Pressure (altimeter): 29.82 inches Hg (1009.9 mb)
[Sea-level pressure: 1012.7 mb]
Winds: from the SW (230 degrees) at 10 MPH (9 knots; 4.7 m/s)
Visibility: 4 miles (6 km)
Ceiling: 1900 feet AGL
Clouds: broken clouds at 1900 feet AGL
overcast cloud deck at 2500 feet AGL
Weather: -SN BR  (light snow, mist)

METAR text: KFKL 152221Z AUTO 23010KT 6SM -SN FEW017 BKN027 OVC055 M06/M09 A2981 RMK AO2 P0000 FZRANO
Conditions at: KFKL (FRANKLIN , PA, US) observed 2221 UTC 15 December 2017
Temperature: -6.0°C (21°F)
Dewpoint: -9.0°C (16°F) [RH = 79%]
Pressure (altimeter): 29.81 inches Hg (1009.6 mb)
Winds: from the SW (230 degrees) at 12 MPH (10 knots; 5.2 m/s)
Visibility: 6 miles (10 km)
Ceiling: 2700 feet AGL
Clouds: few clouds at 1700 feet AGL
broken clouds at 2700 feet AGL
overcast cloud deck at 5500 feet AGL
Weather: -SN  (light snow)

METAR text: KFKL 152214Z AUTO 23008KT 2 1/2SM -SN SCT017 BKN027 OVC055 M06/M09 A2982 RMK AO2 VIS 1 1/2V5 P0000 FZRANO
Conditions at: KFKL (FRANKLIN , PA, US) observed 2214 UTC 15 December 2017
Temperature: -6.0°C (21°F)
Dewpoint: -9.0°C (16°F) [RH = 79%]
Pressure (altimeter): 29.82 inches Hg (1009.9 mb)
Winds: from the SW (230 degrees) at 9 MPH (8 knots; 4.2 m/s)
Visibility: 2.50 miles (4.02 km)
Ceiling: 2700 feet AGL
Clouds: scattered clouds at 1700 feet AGL
broken clouds at 2700 feet AGL
overcast cloud deck at 5500 feet AGL
Weather: -SN  (light snow)

METAR text: KFKL 152156Z AUTO 22008KT 4SM -SN FEW017 BKN027 OVC034 M06/M09 A2981 RMK AO2 SLP124 P0000 T10611089 FZRANO
Conditions at: KFKL (FRANKLIN , PA, US) observed 2156 UTC 15 December 2017
Temperature: -6.1°C (21°F)
Dewpoint: -8.9°C (16°F) [RH = 81%]
Pressure (altimeter): 29.81 inches Hg (1009.6 mb)
[Sea-level pressure: 1012.4 mb]
Winds: from the SW (220 degrees) at 9 MPH (8 knots; 4.2 m/s)
Visibility: 4 miles (6 km)
Ceiling: 2700 feet AGL
Clouds: few clouds at 1700 feet AGL
broken clouds at 2700 feet AGL
overcast cloud deck at 3400 feet AGL
Weather: -SN  (light snow)

METAR text: KFKL 152145Z AUTO 23010KT 3SM -SN BKN017 OVC032 M06/M09 A2981 RMK AO2 P0000 FZRANO
Conditions at: KFKL (FRANKLIN , PA, US) observed 2145 UTC 15 December 2017
Temperature: -6.0°C (21°F)
Dewpoint: -9.0°C (16°F) [RH = 79%]
Pressure (altimeter): 29.81 inches Hg (1009.6 mb)
Winds: from the SW (230 degrees) at 12 MPH (10 knots; 5.2 m/s)
Visibility: 3 miles (5 km)
Ceiling: 1700 feet AGL
Clouds: broken clouds at 1700 feet AGL
overcast cloud deck at 3200 feet AGL
Weather: -SN  (light snow)

METAR text: KFKL 152123Z AUTO 24012KT 2SM -SN BKN017 OVC025 M06/M09 A2981 RMK AO2 P0000 FZRANO
Conditions at: KFKL (FRANKLIN , PA, US) observed 2123 UTC 15 December 2017
Temperature: -6.0°C (21°F)
Dewpoint: -9.0°C (16°F) [RH = 79%]
Pressure (altimeter): 29.81 inches Hg (1009.6 mb)
Winds: from the WSW (240 degrees) at 14 MPH (12 knots; 6.2 m/s)
Visibility: 2.00 miles (3.22 km)
Ceiling: 1700 feet AGL
Clouds: broken clouds at 1700 feet AGL
overcast cloud deck at 2500 feet AGL
Weather: -SN  (light snow)

METAR text: KFKL 152056Z AUTO 24012G17KT 7SM -SN FEW025 BKN029 OVC036 M06/M11 A2980 RMK AO2 SLP120 P0000 60000 T10561106 56011 FZRANO
Conditions at: KFKL (FRANKLIN , PA, US) observed 2056 UTC 15 December 2017
Temperature: -5.6°C (22°F)
Dewpoint: -10.6°C (13°F) [RH = 68%]
Pressure (altimeter): 29.80 inches Hg (1009.2 mb)
[Sea-level pressure: 1012.0 mb]
Winds: from the WSW (240 degrees) at 14 MPH (12 knots; 6.2 m/s)
gusting to 20 MPH (17 knots; 8.8 m/s)
Visibility: 7 miles (11 km)
Ceiling: 2900 feet AGL
Clouds: few clouds at 2500 feet AGL
broken clouds at 2900 feet AGL
overcast cloud deck at 3600 feet AGL
Weather: -SN  (light snow)

METAR text: KFKL 152049Z AUTO 23009KT 7SM -SN BKN029 OVC036 M06/M11 A2980 RMK AO2 P0000 FZRANO
Conditions at: KFKL (FRANKLIN , PA, US) observed 2049 UTC 15 December 2017
Temperature: -6.0°C (21°F)
Dewpoint: -11.0°C (12°F) [RH = 68%]
Pressure (altimeter): 29.80 inches Hg (1009.2 mb)
Winds: from the SW (230 degrees) at 10 MPH (9 knots; 4.7 m/s)
Visibility: 7 miles (11 km)
Ceiling: 2900 feet AGL
Clouds: broken clouds at 2900 feet AGL
overcast cloud deck at 3600 feet AGL
Weather: -SN  (light snow)